Rumpus Ridge, South Dakota
Current Conditions -  °F | °C
As of 3:56 PM on Friday 19 Dec 2014 (Local Time) from KFSD Reporting Station
Overcast Overcast  
Wind Chill: 21°   Ceiling: 700
Heat Index: 30°   Visibility: 8mi
Dew Point: 27°   Wind: 12mph
Humidity: 88%   Direction: 190°S
Pressure: 30.09"   Gusts: NA
Location:  43.5855°N, 97.3085°W
Report Text: KFSD 192156Z 19010KT 8SM OVC007 M01/M03 A3009 RMK AO2 SLP207 T10111028
Loading
Personal Weather Stations






























Interactive Weather Map New forecast layout! Learn more

10-Day Weather Forecast

Advertisements
Track Severe Weather on mobile